sensor_id;sensor_type;location;lat;lon;timestamp;temperature;humidity
69359;HTU21D;56520;49.066;8.660;2024-03-29T00:00:34;7.92;59.07
69359;HTU21D;56520;49.066;8.660;2024-03-29T00:03:00;7.99;58.14
69359;HTU21D;56520;49.066;8.660;2024-03-29T00:05:25;8.05;58.48
69359;HTU21D;56520;49.066;8.660;2024-03-29T00:07:51;8.07;58.99
69359;HTU21D;56520;49.066;8.660;2024-03-29T00:10:16;8.08;58.50
69359;HTU21D;56520;49.066;8.660;2024-03-29T00:12:42;8.06;58.82
69359;HTU21D;56520;49.066;8.660;2024-03-29T00:15:07;8.07;58.45
69359;HTU21D;56520;49.066;8.660;2024-03-29T00:17:33;8.08;58.55
69359;HTU21D;56520;49.066;8.660;2024-03-29T00:19:58;8.03;59.25
69359;HTU21D;56520;49.066;8.660;2024-03-29T00:22:23;7.94;58.60
69359;HTU21D;56520;49.066;8.660;2024-03-29T00:24:49;7.87;59.06
69359;HTU21D;56520;49.066;8.660;2024-03-29T00:27:14;7.85;58.73
69359;HTU21D;56520;49.066;8.660;2024-03-29T00:29:40;7.82;59.36
69359;HTU21D;56520;49.066;8.660;2024-03-29T00:32:05;7.81;59.33
69359;HTU21D;56520;49.066;8.660;2024-03-29T00:34:31;7.78;59.28
69359;HTU21D;56520;49.066;8.660;2024-03-29T00:36:56;7.78;59.22
69359;HTU21D;56520;49.066;8.660;2024-03-29T00:39:22;7.82;59.19
69359;HTU21D;56520;49.066;8.660;2024-03-29T00:41:47;7.84;59.56
69359;HTU21D;56520;49.066;8.660;2024-03-29T00:44:13;7.85;59.33
69359;HTU21D;56520;49.066;8.660;2024-03-29T00:46:39;7.87;59.36
69359;HTU21D;56520;49.066;8.660;2024-03-29T00:49:04;7.94;58.71
69359;HTU21D;56520;49.066;8.660;2024-03-29T00:51:29;8.02;58.67
69359;HTU21D;56520;49.066;8.660;2024-03-29T00:53:55;8.04;59.03
69359;HTU21D;56520;49.066;8.660;2024-03-29T00:56:20;8.03;57.76
69359;HTU21D;56520;49.066;8.660;2024-03-29T00:58:46;8.04;59.07
69359;HTU21D;56520;49.066;8.660;2024-03-29T01:01:11;8.05;58.71
69359;HTU21D;56520;49.066;8.660;2024-03-29T01:03:37;8.09;58.45
69359;HTU21D;56520;49.066;8.660;2024-03-29T01:06:02;8.13;58.08
69359;HTU21D;56520;49.066;8.660;2024-03-29T01:08:28;8.24;56.90
69359;HTU21D;56520;49.066;8.660;2024-03-29T01:10:53;8.37;56.27
69359;HTU21D;56520;49.066;8.660;2024-03-29T01:13:19;8.46;56.75
69359;HTU21D;56520;49.066;8.660;2024-03-29T01:15:45;8.52;56.58
69359;HTU21D;56520;49.066;8.660;2024-03-29T01:18:10;8.51;56.80
69359;HTU21D;56520;49.066;8.660;2024-03-29T01:20:36;8.53;56.65
69359;HTU21D;56520;49.066;8.660;2024-03-29T01:23:01;8.53;56.86
69359;HTU21D;56520;49.066;8.660;2024-03-29T01:25:27;8.49;57.54
69359;HTU21D;56520;49.066;8.660;2024-03-29T01:27:52;8.44;57.22
69359;HTU21D;56520;49.066;8.660;2024-03-29T01:30:18;8.41;57.71
69359;HTU21D;56520;49.066;8.660;2024-03-29T01:32:44;8.37;57.93
69359;HTU21D;56520;49.066;8.660;2024-03-29T01:35:09;8.34;57.59
69359;HTU21D;56520;49.066;8.660;2024-03-29T01:37:35;8.34;57.76
69359;HTU21D;56520;49.066;8.660;2024-03-29T01:40:00;8.30;57.68
69359;HTU21D;56520;49.066;8.660;2024-03-29T01:42:26;8.32;57.65
69359;HTU21D;56520;49.066;8.660;2024-03-29T01:44:51;8.39;57.39
69359;HTU21D;56520;49.066;8.660;2024-03-29T01:47:17;8.44;57.51
69359;HTU21D;56520;49.066;8.660;2024-03-29T01:49:44;8.44;57.66
69359;HTU21D;56520;49.066;8.660;2024-03-29T01:52:10;8.44;57.55
69359;HTU21D;56520;49.066;8.660;2024-03-29T01:54:36;8.45;57.59
69359;HTU21D;56520;49.066;8.660;2024-03-29T01:57:02;8.44;57.59
69359;HTU21D;56520;49.066;8.660;2024-03-29T01:59:28;8.44;57.99
69359;HTU21D;56520;49.066;8.660;2024-03-29T02:01:54;8.45;57.72
69359;HTU21D;56520;49.066;8.660;2024-03-29T02:04:20;8.46;57.67
69359;HTU21D;56520;49.066;8.660;2024-03-29T02:06:47;8.48;57.58
69359;HTU21D;56520;49.066;8.660;2024-03-29T02:09:12;8.51;57.71
69359;HTU21D;56520;49.066;8.660;2024-03-29T02:11:38;8.56;57.28
69359;HTU21D;56520;49.066;8.660;2024-03-29T02:14:03;8.57;57.66
69359;HTU21D;56520;49.066;8.660;2024-03-29T02:16:31;8.58;57.02
69359;HTU21D;56520;49.066;8.660;2024-03-29T02:18:57;8.61;57.49
69359;HTU21D;56520;49.066;8.660;2024-03-29T02:21:22;8.63;57.39
69359;HTU21D;56520;49.066;8.660;2024-03-29T02:24:05;8.62;57.45
69359;HTU21D;56520;49.066;8.660;2024-03-29T02:26:31;8.61;57.81
69359;HTU21D;56520;49.066;8.660;2024-03-29T02:29:01;8.57;58.00
69359;HTU21D;56520;49.066;8.660;2024-03-29T02:31:26;8.59;58.21
69359;HTU21D;56520;49.066;8.660;2024-03-29T02:33:52;8.56;58.25
69359;HTU21D;56520;49.066;8.660;2024-03-29T02:36:17;8.51;58.75
69359;HTU21D;56520;49.066;8.660;2024-03-29T02:38:43;8.46;59.02
69359;HTU21D;56520;49.066;8.660;2024-03-29T02:41:08;8.47;58.62
69359;HTU21D;56520;49.066;8.660;2024-03-29T02:43:33;8.51;58.54
69359;HTU21D;56520;49.066;8.660;2024-03-29T02:45:59;8.57;58.27
69359;HTU21D;56520;49.066;8.660;2024-03-29T02:48:24;8.57;58.46
69359;HTU21D;56520;49.066;8.660;2024-03-29T02:50:49;8.56;58.58
69359;HTU21D;56520;49.066;8.660;2024-03-29T02:53:15;8.55;58.79
69359;HTU21D;56520;49.066;8.660;2024-03-29T02:55:41;8.52;58.95
69359;HTU21D;56520;49.066;8.660;2024-03-29T02:58:07;8.49;58.92
69359;HTU21D;56520;49.066;8.660;2024-03-29T03:00:33;8.50;58.85
69359;HTU21D;56520;49.066;8.660;2024-03-29T03:02:59;8.55;58.64
69359;HTU21D;56520;49.066;8.660;2024-03-29T03:05:24;8.59;58.88
69359;HTU21D;56520;49.066;8.660;2024-03-29T03:07:49;8.63;58.47
69359;HTU21D;56520;49.066;8.660;2024-03-29T03:10:33;8.66;58.50
69359;HTU21D;56520;49.066;8.660;2024-03-29T03:13:17;8.66;59.33
69359;HTU21D;56520;49.066;8.660;2024-03-29T03:15:43;8.65;59.15
69359;HTU21D;56520;49.066;8.660;2024-03-29T03:18:08;8.64;59.14
69359;HTU21D;56520;49.066;8.660;2024-03-29T03:20:33;8.66;58.75
69359;HTU21D;56520;49.066;8.660;2024-03-29T03:23:00;8.73;58.15
69359;HTU21D;56520;49.066;8.660;2024-03-29T03:25:27;8.83;58.71
69359;HTU21D;56520;49.066;8.660;2024-03-29T03:27:52;8.86;58.42
69359;HTU21D;56520;49.066;8.660;2024-03-29T03:30:18;8.90;59.49
69359;HTU21D;56520;49.066;8.660;2024-03-29T03:32:44;8.87;60.71
69359;HTU21D;56520;49.066;8.660;2024-03-29T03:35:09;8.81;61.25
69359;HTU21D;56520;49.066;8.660;2024-03-29T03:37:35;8.75;62.21
69359;HTU21D;56520;49.066;8.660;2024-03-29T03:40:00;8.73;60.07
69359;HTU21D;56520;49.066;8.660;2024-03-29T03:42:26;8.76;60.79
69359;HTU21D;56520;49.066;8.660;2024-03-29T03:44:51;8.75;60.44
69359;HTU21D;56520;49.066;8.660;2024-03-29T03:47:17;8.77;59.57
69359;HTU21D;56520;49.066;8.660;2024-03-29T03:49:42;8.80;59.66
69359;HTU21D;56520;49.066;8.660;2024-03-29T03:52:07;8.82;59.65
69359;HTU21D;56520;49.066;8.660;2024-03-29T03:54:33;8.81;60.01
69359;HTU21D;56520;49.066;8.660;2024-03-29T03:56:59;8.78;60.19
69359;HTU21D;56520;49.066;8.660;2024-03-29T03:59:25;8.80;59.77
69359;HTU21D;56520;49.066;8.660;2024-03-29T04:01:50;8.83;59.40
69359;HTU21D;56520;49.066;8.660;2024-03-29T04:04:17;8.88;59.48
69359;HTU21D;56520;49.066;8.660;2024-03-29T04:06:43;8.87;59.82
69359;HTU21D;56520;49.066;8.660;2024-03-29T04:09:08;8.82;59.88
69359;HTU21D;56520;49.066;8.660;2024-03-29T04:11:34;8.85;59.42
69359;HTU21D;56520;49.066;8.660;2024-03-29T04:13:59;8.85;59.66
69359;HTU21D;56520;49.066;8.660;2024-03-29T04:16:24;8.86;59.46
69359;HTU21D;56520;49.066;8.660;2024-03-29T04:18:50;8.86;59.49
69359;HTU21D;56520;49.066;8.660;2024-03-29T04:21:15;8.86;60.99
69359;HTU21D;56520;49.066;8.660;2024-03-29T04:23:41;8.82;60.41
69359;HTU21D;56520;49.066;8.660;2024-03-29T04:26:06;8.82;60.57
69359;HTU21D;56520;49.066;8.660;2024-03-29T04:28:32;8.83;61.54
69359;HTU21D;56520;49.066;8.660;2024-03-29T04:30:59;8.80;63.42
69359;HTU21D;56520;49.066;8.660;2024-03-29T04:33:25;8.78;64.32
69359;HTU21D;56520;49.066;8.660;2024-03-29T04:35:54;8.70;64.40
69359;HTU21D;56520;49.066;8.660;2024-03-29T04:38:20;8.68;64.95
69359;HTU21D;56520;49.066;8.660;2024-03-29T04:40:46;8.61;65.52
69359;HTU21D;56520;49.066;8.660;2024-03-29T04:43:11;8.60;65.24
69359;HTU21D;56520;49.066;8.660;2024-03-29T04:45:37;8.59;65.25
69359;HTU21D;56520;49.066;8.660;2024-03-29T04:48:02;8.57;64.68
69359;HTU21D;56520;49.066;8.660;2024-03-29T04:50:28;8.57;65.65
69359;HTU21D;56520;49.066;8.660;2024-03-29T04:52:53;8.56;65.27
69359;HTU21D;56520;49.066;8.660;2024-03-29T04:55:19;8.57;64.96
69359;HTU21D;56520;49.066;8.660;2024-03-29T04:57:44;8.58;63.59
69359;HTU21D;56520;49.066;8.660;2024-03-29T05:00:10;8.62;63.52
69359;HTU21D;56520;49.066;8.660;2024-03-29T05:02:35;8.70;64.18
69359;HTU21D;56520;49.066;8.660;2024-03-29T05:05:01;8.71;64.25
69359;HTU21D;56520;49.066;8.660;2024-03-29T05:07:27;8.71;63.70
69359;HTU21D;56520;49.066;8.660;2024-03-29T05:09:52;8.74;63.69
69359;HTU21D;56520;49.066;8.660;2024-03-29T05:12:17;8.74;63.29
69359;HTU21D;56520;49.066;8.660;2024-03-29T05:14:43;8.76;63.20
69359;HTU21D;56520;49.066;8.660;2024-03-29T05:17:08;8.77;62.54
69359;HTU21D;56520;49.066;8.660;2024-03-29T05:19:34;8.83;62.66
69359;HTU21D;56520;49.066;8.660;2024-03-29T05:21:59;8.87;60.93
69359;HTU21D;56520;49.066;8.660;2024-03-29T05:24:25;8.94;60.92
69359;HTU21D;56520;49.066;8.660;2024-03-29T05:26:51;8.97;60.77
69359;HTU21D;56520;49.066;8.660;2024-03-29T05:29:16;9.00;60.99
69359;HTU21D;56520;49.066;8.660;2024-03-29T05:31:42;9.02;61.07
69359;HTU21D;56520;49.066;8.660;2024-03-29T05:34:08;9.02;61.54
69359;HTU21D;56520;49.066;8.660;2024-03-29T05:36:33;9.00;61.80
69359;HTU21D;56520;49.066;8.660;2024-03-29T05:38:59;8.96;60.31
69359;HTU21D;56520;49.066;8.660;2024-03-29T05:41:26;8.97;60.98
69359;HTU21D;56520;49.066;8.660;2024-03-29T05:43:51;8.98;60.49
69359;HTU21D;56520;49.066;8.660;2024-03-29T05:46:16;9.01;60.74
69359;HTU21D;56520;49.066;8.660;2024-03-29T05:48:43;9.06;61.04
69359;HTU21D;56520;49.066;8.660;2024-03-29T05:51:08;9.06;59.63
69359;HTU21D;56520;49.066;8.660;2024-03-29T05:53:34;9.12;60.13
69359;HTU21D;56520;49.066;8.660;2024-03-29T05:55:59;9.16;59.56
69359;HTU21D;56520;49.066;8.660;2024-03-29T05:58:24;9.23;57.98
69359;HTU21D;56520;49.066;8.660;2024-03-29T06:00:50;9.32;57.71
69359;HTU21D;56520;49.066;8.660;2024-03-29T06:03:15;9.41;56.95
69359;HTU21D;56520;49.066;8.660;2024-03-29T06:05:41;9.46;57.48
69359;HTU21D;56520;49.066;8.660;2024-03-29T06:08:07;9.49;57.11
69359;HTU21D;56520;49.066;8.660;2024-03-29T06:10:33;9.56;54.86
69359;HTU21D;56520;49.066;8.660;2024-03-29T06:12:58;9.64;56.13
69359;HTU21D;56520;49.066;8.660;2024-03-29T06:15:33;9.72;56.12
69359;HTU21D;56520;49.066;8.660;2024-03-29T06:18:17;9.77;55.20
69359;HTU21D;56520;49.066;8.660;2024-03-29T06:20:44;9.82;55.06
69359;HTU21D;56520;49.066;8.660;2024-03-29T06:23:10;9.86;55.78
69359;HTU21D;56520;49.066;8.660;2024-03-29T06:25:35;9.92;55.28
69359;HTU21D;56520;49.066;8.660;2024-03-29T06:28:01;9.96;53.46
69359;HTU21D;56520;49.066;8.660;2024-03-29T06:30:26;10.09;54.96
69359;HTU21D;56520;49.066;8.660;2024-03-29T06:32:51;10.12;54.70
69359;HTU21D;56520;49.066;8.660;2024-03-29T06:35:17;10.19;55.06
69359;HTU21D;56520;49.066;8.660;2024-03-29T06:37:44;10.24;54.06
69359;HTU21D;56520;49.066;8.660;2024-03-29T06:40:10;10.28;53.52
69359;HTU21D;56520;49.066;8.660;2024-03-29T06:42:35;10.33;53.91
69359;HTU21D;56520;49.066;8.660;2024-03-29T06:45:01;10.36;53.67
69359;HTU21D;56520;49.066;8.660;2024-03-29T06:47:28;10.42;53.32
69359;HTU21D;56520;49.066;8.660;2024-03-29T06:49:53;10.48;52.46
69359;HTU21D;56520;49.066;8.660;2024-03-29T06:52:18;10.57;53.34
69359;HTU21D;56520;49.066;8.660;2024-03-29T06:54:44;10.65;52.53
69359;HTU21D;56520;49.066;8.660;2024-03-29T06:57:10;10.75;54.52
69359;HTU21D;56520;49.066;8.660;2024-03-29T06:59:40;10.79;54.67
69359;HTU21D;56520;49.066;8.660;2024-03-29T07:02:05;10.85;53.93
69359;HTU21D;56520;49.066;8.660;2024-03-29T07:04:31;10.95;52.78
69359;HTU21D;56520;49.066;8.660;2024-03-29T07:06:56;11.04;53.07
69359;HTU21D;56520;49.066;8.660;2024-03-29T07:09:23;11.10;52.89
69359;HTU21D;56520;49.066;8.660;2024-03-29T07:11:49;11.14;53.50
69359;HTU21D;56520;49.066;8.660;2024-03-29T07:14:16;11.17;54.09
69359;HTU21D;56520;49.066;8.660;2024-03-29T07:16:42;11.24;54.30
69359;HTU21D;56520;49.066;8.660;2024-03-29T07:19:08;11.27;54.54
69359;HTU21D;56520;49.066;8.660;2024-03-29T07:21:33;11.30;54.37
69359;HTU21D;56520;49.066;8.660;2024-03-29T07:23:59;11.31;54.66
69359;HTU21D;56520;49.066;8.660;2024-03-29T07:26:24;11.33;54.49
69359;HTU21D;56520;49.066;8.660;2024-03-29T07:28:50;11.32;55.73
69359;HTU21D;56520;49.066;8.660;2024-03-29T07:31:15;11.26;55.35
69359;HTU21D;56520;49.066;8.660;2024-03-29T07:33:41;11.15;56.28
69359;HTU21D;56520;49.066;8.660;2024-03-29T07:36:06;11.07;57.52
69359;HTU21D;56520;49.066;8.660;2024-03-29T07:38:34;10.94;59.50
69359;HTU21D;56520;49.066;8.660;2024-03-29T07:40:59;10.75;60.11
69359;HTU21D;56520;49.066;8.660;2024-03-29T07:43:25;10.57;60.59
69359;HTU21D;56520;49.066;8.660;2024-03-29T07:45:50;10.37;61.37
69359;HTU21D;56520;49.066;8.660;2024-03-29T07:48:17;10.18;62.74
69359;HTU21D;56520;49.066;8.660;2024-03-29T07:50:44;9.97;64.38
69359;HTU21D;56520;49.066;8.660;2024-03-29T07:53:09;9.75;66.46
69359;HTU21D;56520;49.066;8.660;2024-03-29T07:55:37;9.57;67.55
69359;HTU21D;56520;49.066;8.660;2024-03-29T07:58:02;9.46;68.78
69359;HTU21D;56520;49.066;8.660;2024-03-29T08:00:30;9.36;69.64
69359;HTU21D;56520;49.066;8.660;2024-03-29T08:02:56;9.35;72.77
69359;HTU21D;56520;49.066;8.660;2024-03-29T08:05:21;9.31;73.19
69359;HTU21D;56520;49.066;8.660;2024-03-29T08:07:47;9.29;75.23
69359;HTU21D;56520;49.066;8.660;2024-03-29T08:10:13;9.24;75.97
69359;HTU21D;56520;49.066;8.660;2024-03-29T08:12:38;9.16;78.72
69359;HTU21D;56520;49.066;8.660;2024-03-29T08:15:04;9.06;77.55
69359;HTU21D;56520;49.066;8.660;2024-03-29T08:17:30;9.01;79.46
69359;HTU21D;56520;49.066;8.660;2024-03-29T08:19:55;8.92;78.00
69359;HTU21D;56520;49.066;8.660;2024-03-29T08:22:21;8.90;79.05
69359;HTU21D;56520;49.066;8.660;2024-03-29T08:24:46;8.88;82.29
69359;HTU21D;56520;49.066;8.660;2024-03-29T08:27:12;8.85;82.09
69359;HTU21D;56520;49.066;8.660;2024-03-29T08:29:37;8.81;81.81
69359;HTU21D;56520;49.066;8.660;2024-03-29T08:32:03;8.82;81.17
69359;HTU21D;56520;49.066;8.660;2024-03-29T08:34:29;8.82;82.78
69359;HTU21D;56520;49.066;8.660;2024-03-29T08:37:02;8.85;83.33
69359;HTU21D;56520;49.066;8.660;2024-03-29T08:39:31;8.76;83.91
69359;HTU21D;56520;49.066;8.660;2024-03-29T08:41:58;8.76;84.34
69359;HTU21D;56520;49.066;8.660;2024-03-29T08:44:23;8.78;84.89
69359;HTU21D;56520;49.066;8.660;2024-03-29T08:46:50;8.81;86.46
69359;HTU21D;56520;49.066;8.660;2024-03-29T08:49:15;8.85;85.28
69359;HTU21D;56520;49.066;8.660;2024-03-29T08:51:41;8.86;85.78
69359;HTU21D;56520;49.066;8.660;2024-03-29T08:54:06;8.82;85.06
69359;HTU21D;56520;49.066;8.660;2024-03-29T08:56:32;8.81;86.35
69359;HTU21D;56520;49.066;8.660;2024-03-29T08:59:00;8.86;85.22
69359;HTU21D;56520;49.066;8.660;2024-03-29T09:01:28;8.90;85.51
69359;HTU21D;56520;49.066;8.660;2024-03-29T09:03:53;8.96;85.29
69359;HTU21D;56520;49.066;8.660;2024-03-29T09:06:19;9.06;84.97
69359;HTU21D;56520;49.066;8.660;2024-03-29T09:08:44;9.18;85.76
69359;HTU21D;56520;49.066;8.660;2024-03-29T09:11:10;9.29;85.80
69359;HTU21D;56520;49.066;8.660;2024-03-29T09:13:36;9.39;86.67
69359;HTU21D;56520;49.066;8.660;2024-03-29T09:16:02;9.48;86.99
69359;HTU21D;56520;49.066;8.660;2024-03-29T09:18:27;9.67;87.37
69359;HTU21D;56520;49.066;8.660;2024-03-29T09:20:59;10.01;87.69
69359;HTU21D;56520;49.066;8.660;2024-03-29T09:23:26;10.31;87.28
69359;HTU21D;56520;49.066;8.660;2024-03-29T09:25:54;10.57;86.53
69359;HTU21D;56520;49.066;8.660;2024-03-29T09:28:19;10.68;85.97
69359;HTU21D;56520;49.066;8.660;2024-03-29T09:30:47;10.65;86.91
69359;HTU21D;56520;49.066;8.660;2024-03-29T09:33:13;10.56;87.09
69359;HTU21D;56520;49.066;8.660;2024-03-29T09:35:38;10.55;86.90
69359;HTU21D;56520;49.066;8.660;2024-03-29T09:38:04;10.68;87.17
69359;HTU21D;56520;49.066;8.660;2024-03-29T09:40:31;10.87;88.56
69359;HTU21D;56520;49.066;8.660;2024-03-29T09:43:00;11.07;87.83
69359;HTU21D;56520;49.066;8.660;2024-03-29T09:45:34;11.26;88.77
69359;HTU21D;56520;49.066;8.660;2024-03-29T09:48:03;11.46;88.18
69359;HTU21D;56520;49.066;8.660;2024-03-29T09:50:30;11.77;87.29
69359;HTU21D;56520;49.066;8.660;2024-03-29T09:52:56;12.16;87.41
69359;HTU21D;56520;49.066;8.660;2024-03-29T09:55:23;12.47;86.33
69359;HTU21D;56520;49.066;8.660;2024-03-29T09:57:49;12.64;85.61
69359;HTU21D;56520;49.066;8.660;2024-03-29T10:00:15;12.64;85.42
69359;HTU21D;56520;49.066;8.660;2024-03-29T10:02:40;12.57;85.49
69359;HTU21D;56520;49.066;8.660;2024-03-29T10:05:08;12.51;86.63
69359;HTU21D;56520;49.066;8.660;2024-03-29T10:07:35;12.55;86.51
69359;HTU21D;56520;49.066;8.660;2024-03-29T10:10:02;12.55;86.25
69359;HTU21D;56520;49.066;8.660;2024-03-29T10:12:28;12.51;85.93
69359;HTU21D;56520;49.066;8.660;2024-03-29T10:14:54;12.55;85.77
69359;HTU21D;56520;49.066;8.660;2024-03-29T10:17:37;12.65;85.22
69359;HTU21D;56520;49.066;8.660;2024-03-29T10:20:04;12.76;84.94
69359;HTU21D;56520;49.066;8.660;2024-03-29T10:22:35;12.96;84.58
69359;HTU21D;56520;49.066;8.660;2024-03-29T10:25:01;13.24;84.00
69359;HTU21D;56520;49.066;8.660;2024-03-29T10:27:27;13.46;83.97
69359;HTU21D;56520;49.066;8.660;2024-03-29T10:29:55;13.58;83.34
69359;HTU21D;56520;49.066;8.660;2024-03-29T10:32:22;13.68;83.09
69359;HTU21D;56520;49.066;8.660;2024-03-29T10:34:48;13.68;82.93
69359;HTU21D;56520;49.066;8.660;2024-03-29T10:37:14;13.74;83.06
69359;HTU21D;56520;49.066;8.660;2024-03-29T10:39:42;13.83;83.13
69359;HTU21D;56520;49.066;8.660;2024-03-29T10:42:08;13.96;82.72
69359;HTU21D;56520;49.066;8.660;2024-03-29T10:44:37;14.13;82.36
69359;HTU21D;56520;49.066;8.660;2024-03-29T10:47:06;14.36;82.02
69359;HTU21D;56520;49.066;8.660;2024-03-29T10:49:32;14.64;81.39
69359;HTU21D;56520;49.066;8.660;2024-03-29T10:51:59;14.79;80.74
69359;HTU21D;56520;49.066;8.660;2024-03-29T10:54:25;14.99;80.27
69359;HTU21D;56520;49.066;8.660;2024-03-29T10:57:05;15.29;80.07
69359;HTU21D;56520;49.066;8.660;2024-03-29T10:59:48;15.78;79.83
69359;HTU21D;56520;49.066;8.660;2024-03-29T11:02:48;16.39;78.40
69359;HTU21D;56520;49.066;8.660;2024-03-29T11:05:16;16.78;77.64
69359;HTU21D;56520;49.066;8.660;2024-03-29T11:07:43;17.04;76.11
69359;HTU21D;56520;49.066;8.660;2024-03-29T11:10:14;17.11;74.29
69359;HTU21D;56520;49.066;8.660;2024-03-29T11:12:50;17.23;74.06
69359;HTU21D;56520;49.066;8.660;2024-03-29T11:15:28;17.39;74.27
69359;HTU21D;56520;49.066;8.660;2024-03-29T11:17:55;17.53;71.38
69359;HTU21D;56520;49.066;8.660;2024-03-29T11:20:25;17.48;71.07
69359;HTU21D;56520;49.066;8.660;2024-03-29T11:22:59;17.36;71.60
69359;HTU21D;56520;49.066;8.660;2024-03-29T11:25:41;17.14;71.85
69359;HTU21D;56520;49.066;8.660;2024-03-29T11:28:07;16.90;73.67
69359;HTU21D;56520;49.066;8.660;2024-03-29T11:30:45;16.78;74.05
69359;HTU21D;56520;49.066;8.660;2024-03-29T11:33:30;16.64;74.07
69359;HTU21D;56520;49.066;8.660;2024-03-29T11:35:57;16.46;72.90
69359;HTU21D;56520;49.066;8.660;2024-03-29T11:38:30;16.35;73.76
69359;HTU21D;56520;49.066;8.660;2024-03-29T11:41:24;16.25;74.51
69359;HTU21D;56520;49.066;8.660;2024-03-29T11:43:51;16.24;74.94
69359;HTU21D;56520;49.066;8.660;2024-03-29T11:46:17;16.17;75.86
69359;HTU21D;56520;49.066;8.660;2024-03-29T11:48:43;16.06;76.85
69359;HTU21D;56520;49.066;8.660;2024-03-29T11:51:13;15.95;77.07
69359;HTU21D;56520;49.066;8.660;2024-03-29T11:53:40;15.86;76.37
69359;HTU21D;56520;49.066;8.660;2024-03-29T11:56:06;15.78;77.65
69359;HTU21D;56520;49.066;8.660;2024-03-29T11:58:33;15.77;78.07
69359;HTU21D;56520;49.066;8.660;2024-03-29T12:01:00;15.68;77.57
69359;HTU21D;56520;49.066;8.660;2024-03-29T12:03:28;15.53;77.92
69359;HTU21D;56520;49.066;8.660;2024-03-29T12:05:56;15.46;79.16
69359;HTU21D;56520;49.066;8.660;2024-03-29T12:08:28;15.46;79.26
69359;HTU21D;56520;49.066;8.660;2024-03-29T12:10:54;15.47;79.02
69359;HTU21D;56520;49.066;8.660;2024-03-29T12:13:19;15.43;78.68
69359;HTU21D;56520;49.066;8.660;2024-03-29T12:15:45;15.15;78.61
69359;HTU21D;56520;49.066;8.660;2024-03-29T12:18:10;15.08;79.47
69359;HTU21D;56520;49.066;8.660;2024-03-29T12:20:38;15.11;79.14
69359;HTU21D;56520;49.066;8.660;2024-03-29T12:23:06;15.01;79.30
69359;HTU21D;56520;49.066;8.660;2024-03-29T12:25:33;14.92;78.84
69359;HTU21D;56520;49.066;8.660;2024-03-29T12:28:00;14.77;79.35
69359;HTU21D;56520;49.066;8.660;2024-03-29T12:30:26;14.51;78.07
69359;HTU21D;56520;49.066;8.660;2024-03-29T12:33:01;14.29;78.82
69359;HTU21D;56520;49.066;8.660;2024-03-29T12:35:28;14.13;79.53
69359;HTU21D;56520;49.066;8.660;2024-03-29T12:37:55;14.00;79.74
69359;HTU21D;56520;49.066;8.660;2024-03-29T12:40:24;13.90;79.97
69359;HTU21D;56520;49.066;8.660;2024-03-29T12:42:50;13.83;80.69
69359;HTU21D;56520;49.066;8.660;2024-03-29T12:45:18;13.73;80.64
69359;HTU21D;56520;49.066;8.660;2024-03-29T12:47:45;13.69;81.02
69359;HTU21D;56520;49.066;8.660;2024-03-29T12:50:13;13.67;81.94
69359;HTU21D;56520;49.066;8.660;2024-03-29T12:52:44;13.55;81.84
69359;HTU21D;56520;49.066;8.660;2024-03-29T12:55:09;13.49;82.45
69359;HTU21D;56520;49.066;8.660;2024-03-29T12:57:36;13.34;82.75
69359;HTU21D;56520;49.066;8.660;2024-03-29T13:00:03;13.24;82.99
69359;HTU21D;56520;49.066;8.660;2024-03-29T13:02:32;13.24;83.51
69359;HTU21D;56520;49.066;8.660;2024-03-29T13:04:57;13.30;83.56
69359;HTU21D;56520;49.066;8.660;2024-03-29T13:07:23;13.35;83.48
69359;HTU21D;56520;49.066;8.660;2024-03-29T13:09:48;13.39;84.16
69359;HTU21D;56520;49.066;8.660;2024-03-29T13:12:13;13.45;83.39
69359;HTU21D;56520;49.066;8.660;2024-03-29T13:14:39;13.40;83.45
69359;HTU21D;56520;49.066;8.660;2024-03-29T13:17:04;13.36;83.96
69359;HTU21D;56520;49.066;8.660;2024-03-29T13:19:30;13.30;84.94
69359;HTU21D;56520;49.066;8.660;2024-03-29T13:21:55;13.40;85.08
69359;HTU21D;56520;49.066;8.660;2024-03-29T13:24:20;13.64;85.84
69359;HTU21D;56520;49.066;8.660;2024-03-29T13:26:46;13.76;86.86
69359;HTU21D;56520;49.066;8.660;2024-03-29T13:29:11;13.85;85.86
69359;HTU21D;56520;49.066;8.660;2024-03-29T13:31:39;13.90;85.02
69359;HTU21D;56520;49.066;8.660;2024-03-29T13:34:04;13.96;85.22
69359;HTU21D;56520;49.066;8.660;2024-03-29T13:36:38;13.92;85.64
69359;HTU21D;56520;49.066;8.660;2024-03-29T13:39:04;13.91;84.79
69359;HTU21D;56520;49.066;8.660;2024-03-29T13:41:30;13.92;85.12
69359;HTU21D;56520;49.066;8.660;2024-03-29T13:43:55;14.07;84.92
69359;HTU21D;56520;49.066;8.660;2024-03-29T13:46:21;14.15;84.60
69359;HTU21D;56520;49.066;8.660;2024-03-29T13:48:47;14.27;83.92
69359;HTU21D;56520;49.066;8.660;2024-03-29T13:51:12;14.26;83.92
69359;HTU21D;56520;49.066;8.660;2024-03-29T13:53:40;14.20;84.14
69359;HTU21D;56520;49.066;8.660;2024-03-29T13:56:06;14.28;84.31
69359;HTU21D;56520;49.066;8.660;2024-03-29T13:58:31;14.37;83.05
69359;HTU21D;56520;49.066;8.660;2024-03-29T14:00:57;14.30;83.06
69359;HTU21D;56520;49.066;8.660;2024-03-29T14:03:25;14.21;83.49
69359;HTU21D;56520;49.066;8.660;2024-03-29T14:05:51;14.11;83.52
69359;HTU21D;56520;49.066;8.660;2024-03-29T14:08:17;14.07;83.58
69359;HTU21D;56520;49.066;8.660;2024-03-29T14:10:42;14.03;83.58
69359;HTU21D;56520;49.066;8.660;2024-03-29T14:13:08;14.01;83.78
69359;HTU21D;56520;49.066;8.660;2024-03-29T14:15:34;14.00;83.91
69359;HTU21D;56520;49.066;8.660;2024-03-29T14:18:00;13.99;83.94
69359;HTU21D;56520;49.066;8.660;2024-03-29T14:20:25;14.09;84.07
69359;HTU21D;56520;49.066;8.660;2024-03-29T14:22:51;14.15;84.09
69359;HTU21D;56520;49.066;8.660;2024-03-29T14:25:21;14.14;83.79
69359;HTU21D;56520;49.066;8.660;2024-03-29T14:27:46;14.22;83.96
69359;HTU21D;56520;49.066;8.660;2024-03-29T14:30:22;14.32;83.86
69359;HTU21D;56520;49.066;8.660;2024-03-29T14:32:50;14.29;83.50
69359;HTU21D;56520;49.066;8.660;2024-03-29T14:35:16;14.33;83.50
69359;HTU21D;56520;49.066;8.660;2024-03-29T14:37:42;14.40;83.22
69359;HTU21D;56520;49.066;8.660;2024-03-29T14:40:08;14.37;82.95
69359;HTU21D;56520;49.066;8.660;2024-03-29T14:42:34;14.55;82.72
69359;HTU21D;56520;49.066;8.660;2024-03-29T14:45:04;14.80;82.07
69359;HTU21D;56520;49.066;8.660;2024-03-29T14:47:31;14.88;80.49
69359;HTU21D;56520;49.066;8.660;2024-03-29T14:49:58;14.82;81.14
69359;HTU21D;56520;49.066;8.660;2024-03-29T14:52:24;14.87;81.59
69359;HTU21D;56520;49.066;8.660;2024-03-29T14:54:49;14.89;81.47
69359;HTU21D;56520;49.066;8.660;2024-03-29T14:57:15;14.81;81.70
69359;HTU21D;56520;49.066;8.660;2024-03-29T14:59:40;14.82;81.85
69359;HTU21D;56520;49.066;8.660;2024-03-29T15:02:06;14.80;81.78
69359;HTU21D;56520;49.066;8.660;2024-03-29T15:04:32;14.84;81.67
69359;HTU21D;56520;49.066;8.660;2024-03-29T15:06:57;14.86;81.37
69359;HTU21D;56520;49.066;8.660;2024-03-29T15:09:22;14.94;81.65
69359;HTU21D;56520;49.066;8.660;2024-03-29T15:11:48;15.16;81.42
69359;HTU21D;56520;49.066;8.660;2024-03-29T15:14:13;15.36;81.16
69359;HTU21D;56520;49.066;8.660;2024-03-29T15:16:39;15.24;81.65
69359;HTU21D;56520;49.066;8.660;2024-03-29T15:19:04;15.16;82.01